createdAt,value
2023-03-07T00:01:30.492Z,24.05
2023-03-07T00:03:58.974Z,28.50
2023-03-07T00:06:26.380Z,28.63
2023-03-07T00:09:04.049Z,21.58
2023-03-07T00:11:31.116Z,22.23
2023-03-07T00:13:58.438Z,20.33
2023-03-07T00:16:25.826Z,18.40
2023-03-07T00:18:54.412Z,17.35
2023-03-07T00:21:22.223Z,17.05
2023-03-07T00:23:52.567Z,14.65
2023-03-07T00:26:22.221Z,12.77
2023-03-07T00:28:51.705Z,13.00
2023-03-07T00:31:20.019Z,11.32
2023-03-07T00:33:47.778Z,11.82
2023-03-07T00:36:19.166Z,11.95
2023-03-07T00:38:49.491Z,11.30
2023-03-07T00:41:21.404Z,12.90
2023-03-07T00:43:49.481Z,12.68
2023-03-07T00:46:18.754Z,13.85
2023-03-07T00:48:46.302Z,13.75
2023-03-07T00:51:15.240Z,15.80
2023-03-07T00:53:43.403Z,15.52
2023-03-07T00:56:17.768Z,14.30
2023-03-07T00:58:48.048Z,16.33
2023-03-07T01:01:18.647Z,15.77
2023-03-07T01:03:48.443Z,15.27
2023-03-07T01:06:18.336Z,14.63
2023-03-07T01:08:46.135Z,14.48
2023-03-07T01:11:13.949Z,13.07
2023-03-07T01:13:41.409Z,13.25
2023-03-07T01:16:16.858Z,14.45
2023-03-07T01:18:45.749Z,11.60
2023-03-07T01:21:19.336Z,11.43
2023-03-07T01:26:22.283Z,14.68
2023-03-07T01:28:59.785Z,10.63
2023-03-07T01:31:27.703Z,8.73
2023-03-07T01:33:55.104Z,7.95
2023-03-07T01:36:22.218Z,6.85
2023-03-07T01:38:55.289Z,6.63
2023-03-07T01:41:22.901Z,7.10
2023-03-07T01:43:50.671Z,7.00
2023-03-07T01:46:18.260Z,7.10
2023-03-07T01:48:55.708Z,7.43
2023-03-07T01:51:23.594Z,8.27
2023-03-07T01:53:53.545Z,7.90
2023-03-07T01:56:22.466Z,8.38
2023-03-07T01:58:51.593Z,9.05
2023-03-07T02:01:22.043Z,9.05
2023-03-07T02:04:03.100Z,8.80
2023-03-07T02:06:33.407Z,10.43
2023-03-07T02:09:01.967Z,10.77
2023-03-07T02:11:31.631Z,10.80
2023-03-07T02:13:58.978Z,13.13
2023-03-07T02:16:26.297Z,12.85
2023-03-07T02:18:54.106Z,12.05
2023-03-07T02:21:24.134Z,13.52
2023-03-07T02:24:19.847Z,13.43
2023-03-07T02:26:47.985Z,13.02
2023-03-07T02:29:15.854Z,13.95
2023-03-07T02:31:43.140Z,15.73
2023-03-07T02:34:20.837Z,16.55
2023-03-07T02:36:52.869Z,16.15
2023-03-07T02:39:23.595Z,18.10
2023-03-07T02:41:51.509Z,17.60
2023-03-07T02:44:19.084Z,18.98
2023-03-07T02:46:46.137Z,18.63
2023-03-07T02:49:13.742Z,18.77
2023-03-07T02:51:40.825Z,17.45
2023-03-07T02:54:08.378Z,19.90
2023-03-07T02:56:39.899Z,17.85
2023-03-07T02:59:11.373Z,18.95
2023-03-07T03:01:38.879Z,18.38
2023-03-07T03:04:06.534Z,18.05
2023-03-07T03:06:34.230Z,18.40
2023-03-07T03:09:03.800Z,18.08
2023-03-07T03:11:31.176Z,20.52
2023-03-07T03:14:00.296Z,20.98
2023-03-07T03:16:27.696Z,20.52
2023-03-07T03:18:57.055Z,20.63
2023-03-07T03:21:24.485Z,19.33
2023-03-07T03:23:51.642Z,19.95
2023-03-07T03:26:19.105Z,19.00
2023-03-07T03:28:48.412Z,20.55
2023-03-07T03:31:16.190Z,18.38
2023-03-07T03:33:43.936Z,19.05
2023-03-07T03:36:16.373Z,19.25
2023-03-07T03:38:43.440Z,16.70
2023-03-07T03:41:13.675Z,20.77
2023-03-07T03:43:43.111Z,18.98
2023-03-07T03:46:10.558Z,18.40
2023-03-07T03:48:37.686Z,18.05
2023-03-07T03:51:07.889Z,16.38
2023-03-07T03:53:37.488Z,17.63
2023-03-07T03:56:04.919Z,16.20
2023-03-07T03:58:33.071Z,17.98
2023-03-07T04:03:49.337Z,19.48
2023-03-07T04:08:46.025Z,18.15
2023-03-07T04:11:15.948Z,18.70
2023-03-07T04:13:43.181Z,20.08
2023-03-07T04:16:10.837Z,20.45
2023-03-07T04:18:37.924Z,19.02
2023-03-07T04:21:06.142Z,19.20
2023-03-07T04:23:35.578Z,20.35
2023-03-07T04:26:04.947Z,20.45
2023-03-07T04:28:35.615Z,22.35
2023-03-07T04:31:05.328Z,19.85
2023-03-07T04:33:32.393Z,21.70
2023-03-07T04:36:02.317Z,21.85
2023-03-07T04:38:29.460Z,21.63
2023-03-07T04:40:56.967Z,21.40
2023-03-07T04:43:24.049Z,21.58
2023-03-07T04:45:55.184Z,20.85
2023-03-07T04:48:22.250Z,20.73
2023-03-07T04:50:51.714Z,21.73
2023-03-07T04:53:19.480Z,23.35
2023-03-07T04:55:46.803Z,21.67
2023-03-07T04:58:14.190Z,22.58
2023-03-07T05:00:45.661Z,22.67
2023-03-07T05:03:15.411Z,24.42
2023-03-07T05:05:42.799Z,22.80
2023-03-07T05:08:10.047Z,21.13
2023-03-07T05:10:41.875Z,22.48
2023-03-07T05:13:08.952Z,23.45
2023-03-07T05:15:36.474Z,22.60
2023-03-07T05:18:03.711Z,22.38
2023-03-07T05:20:31.157Z,22.83
2023-03-07T05:22:58.228Z,22.75
2023-03-07T05:25:25.671Z,24.40
2023-03-07T05:27:52.737Z,22.77
2023-03-07T05:30:20.210Z,23.95
2023-03-07T05:32:47.227Z,23.90
2023-03-07T05:35:14.551Z,23.65
2023-03-07T05:37:41.635Z,22.88
2023-03-07T05:40:11.011Z,24.48
2023-03-07T05:42:38.122Z,22.13
2023-03-07T05:45:06.069Z,21.35
2023-03-07T05:47:35.904Z,23.77
2023-03-07T05:50:06.102Z,21.77
2023-03-07T05:52:35.406Z,23.17
2023-03-07T05:55:03.149Z,20.75
2023-03-07T05:57:33.180Z,23.08
2023-03-07T06:00:00.512Z,22.23
2023-03-07T06:02:28.472Z,22.35
2023-03-07T06:04:56.311Z,22.27
2023-03-07T06:07:23.752Z,20.42
2023-03-07T06:09:53.606Z,20.23
2023-03-07T06:12:20.669Z,19.52
2023-03-07T06:14:50.317Z,21.45
2023-03-07T06:17:17.369Z,23.63
2023-03-07T06:19:44.701Z,20.65
2023-03-07T06:22:13.957Z,21.02
2023-03-07T06:24:41.348Z,19.77
2023-03-07T06:27:08.500Z,18.10
2023-03-07T06:29:36.373Z,19.98
2023-03-07T06:32:03.730Z,20.25
2023-03-07T06:34:31.138Z,17.40
2023-03-07T06:36:58.208Z,17.70
2023-03-07T06:39:25.772Z,18.05
2023-03-07T06:41:53.594Z,16.75
2023-03-07T06:44:23.167Z,15.95
2023-03-07T06:46:50.217Z,16.48
2023-03-07T06:49:20.046Z,15.52
2023-03-07T06:51:49.392Z,14.57
2023-03-07T06:54:16.799Z,14.50
2023-03-07T06:56:45.466Z,15.07
2023-03-07T06:59:13.044Z,14.77
2023-03-07T07:01:40.158Z,13.73
2023-03-07T07:04:07.672Z,12.43
2023-03-07T07:06:36.946Z,12.13
2023-03-07T07:09:06.743Z,13.50
2023-03-07T07:11:33.836Z,12.45
2023-03-07T07:14:01.567Z,11.60
2023-03-07T07:16:31.185Z,12.45
2023-03-07T07:18:58.601Z,13.98
2023-03-07T07:21:28.134Z,12.40
2023-03-07T07:23:58.961Z,12.43
2023-03-07T07:26:26.118Z,12.02
2023-03-07T07:28:56.392Z,12.85
2023-03-07T07:31:25.839Z,12.60
2023-03-07T07:33:53.195Z,12.63
2023-03-07T07:36:22.655Z,12.20
2023-03-07T07:38:50.546Z,13.13
2023-03-07T07:41:17.845Z,12.68
2023-03-07T07:43:45.140Z,13.18
2023-03-07T07:46:12.940Z,12.73
2023-03-07T07:48:40.401Z,12.25
2023-03-07T07:51:09.917Z,12.43
2023-03-07T07:53:39.783Z,12.00
2023-03-07T07:56:11.957Z,12.90
2023-03-07T07:58:39.605Z,12.93
2023-03-07T08:01:33.342Z,12.93
2023-03-07T08:04:01.126Z,13.20
2023-03-07T08:06:31.203Z,12.48
2023-03-07T08:08:58.658Z,12.40
2023-03-07T08:11:25.914Z,13.18
2023-03-07T08:13:53.278Z,12.38
2023-03-07T08:16:21.912Z,12.35
2023-03-07T08:18:51.837Z,13.73
2023-03-07T08:21:19.591Z,13.23
2023-03-07T08:23:47.102Z,13.57
2023-03-07T08:26:14.307Z,13.00
2023-03-07T08:28:42.573Z,12.52
2023-03-07T08:31:12.484Z,11.63
2023-03-07T08:33:40.212Z,11.40
2023-03-07T08:36:08.045Z,13.13
2023-03-07T08:38:38.104Z,11.15
2023-03-07T08:41:07.277Z,12.15
2023-03-07T08:43:37.933Z,11.07
2023-03-07T08:46:07.860Z,11.82
2023-03-07T08:48:38.197Z,12.73
2023-03-07T08:51:10.821Z,11.82
2023-03-07T08:56:11.765Z,12.63
2023-03-07T08:58:41.896Z,11.77
2023-03-07T09:01:11.687Z,12.00
2023-03-07T09:03:42.357Z,11.82
2023-03-07T09:06:15.756Z,11.73
2023-03-07T09:08:43.212Z,10.65
2023-03-07T09:11:12.532Z,11.50
2023-03-07T09:13:50.991Z,11.50
2023-03-07T09:16:22.734Z,12.38
2023-03-07T09:18:50.984Z,11.73
2023-03-07T09:21:18.151Z,12.93
2023-03-07T09:23:48.160Z,11.45
2023-03-07T09:26:17.547Z,10.93
2023-03-07T09:28:44.902Z,11.13
2023-03-07T09:31:15.751Z,12.18
2023-03-07T09:33:45.674Z,11.13
2023-03-07T09:36:13.852Z,12.63
2023-03-07T09:38:41.511Z,11.95
2023-03-07T09:41:29.616Z,12.18
2023-03-07T09:44:08.659Z,11.10
2023-03-07T09:46:44.605Z,10.32
2023-03-07T09:49:18.759Z,10.10
2023-03-07T09:51:50.401Z,10.75
2023-03-07T09:54:22.400Z,10.35
2023-03-07T09:56:55.642Z,10.93
2023-03-07T09:59:29.214Z,10.40
2023-03-07T10:02:37.015Z,9.45
2023-03-07T10:05:22.342Z,10.07
2023-03-07T10:07:49.684Z,10.18
2023-03-07T10:10:41.618Z,11.05
2023-03-07T10:13:32.965Z,9.98
2023-03-07T10:16:14.720Z,8.88
2023-03-07T10:18:47.561Z,8.68
2023-03-07T10:21:36.164Z,9.38
2023-03-07T10:24:21.023Z,9.43
2023-03-07T10:27:10.768Z,9.23
2023-03-07T10:29:46.734Z,10.27
2023-03-07T10:32:37.857Z,9.43
2023-03-07T10:35:13.805Z,10.02
2023-03-07T10:37:49.321Z,9.90
2023-03-07T10:40:25.291Z,10.52
2023-03-07T10:42:54.130Z,9.68
2023-03-07T10:45:23.765Z,10.30
2023-03-07T10:47:51.136Z,9.65
2023-03-07T10:50:46.645Z,10.48
2023-03-07T10:53:25.201Z,10.68
2023-03-07T10:55:52.374Z,10.50
2023-03-07T10:58:25.495Z,10.68
2023-03-07T11:01:01.810Z,7.65
2023-03-07T11:03:55.207Z,9.55
2023-03-07T11:06:37.699Z,10.23
2023-03-07T11:09:33.772Z,9.18
2023-03-07T11:12:06.756Z,9.43
2023-03-07T11:17:42.698Z,9.65
2023-03-07T11:20:24.904Z,9.82
2023-03-07T11:23:14.896Z,11.35
2023-03-07T11:25:43.013Z,9.20
2023-03-07T11:28:42.482Z,9.38
2023-03-07T11:31:41.241Z,10.27
2023-03-07T11:34:45.246Z,10.45
2023-03-07T11:37:43.105Z,9.32
2023-03-07T11:40:27.164Z,10.00
2023-03-07T11:43:23.951Z,9.23
2023-03-07T11:46:18.645Z,9.85
2023-03-07T11:49:10.825Z,8.88
2023-03-07T11:51:57.625Z,9.25
2023-03-07T11:54:29.253Z,9.13
2023-03-07T11:57:11.830Z,9.30
2023-03-07T12:00:15.682Z,8.43
2023-03-07T12:03:06.263Z,8.45
2023-03-07T12:06:11.464Z,8.40
2023-03-07T12:08:52.640Z,7.78
2023-03-07T12:11:53.702Z,7.50
2023-03-07T12:14:32.783Z,8.13
2023-03-07T12:17:00.136Z,7.78
2023-03-07T12:19:51.792Z,7.90
2023-03-07T12:22:27.641Z,7.82
2023-03-07T12:25:16.140Z,6.93
2023-03-07T12:28:09.048Z,7.70
2023-03-07T12:30:57.829Z,6.07
2023-03-07T12:33:47.966Z,6.65
2023-03-07T12:36:35.344Z,7.15
2023-03-07T12:39:05.824Z,6.35
2023-03-07T12:41:43.533Z,6.80
2023-03-07T12:44:23.539Z,6.25
2023-03-07T12:47:21.732Z,7.82
2023-03-07T12:49:53.241Z,7.40
2023-03-07T12:52:42.033Z,7.30
2023-03-07T12:55:50.235Z,6.85
2023-03-07T12:58:27.079Z,7.57
2023-03-07T13:01:03.623Z,6.93
2023-03-07T13:03:49.743Z,6.82
2023-03-07T13:06:22.463Z,6.60
2023-03-07T13:08:55.422Z,6.90
2023-03-07T13:11:31.553Z,7.35
2023-03-07T13:14:05.662Z,6.93
2023-03-07T13:16:40.505Z,6.85
2023-03-07T13:19:36.614Z,7.00
2023-03-07T13:22:25.133Z,7.20
2023-03-07T13:24:54.211Z,6.80
2023-03-07T13:27:32.630Z,7.80
2023-03-07T13:30:11.903Z,7.75
2023-03-07T13:32:51.312Z,7.63
2023-03-07T13:35:27.459Z,8.48
2023-03-07T13:38:13.380Z,8.73
2023-03-07T13:40:46.735Z,8.13
2023-03-07T13:43:20.051Z,7.30
2023-03-07T13:45:58.469Z,9.30
2023-03-07T13:48:29.006Z,8.10
2023-03-07T13:50:58.996Z,7.47
2023-03-07T13:54:02.448Z,7.80
2023-03-07T13:56:35.783Z,8.70
2023-03-07T13:59:15.605Z,8.48
2023-03-07T14:01:57.762Z,9.65
2023-03-07T14:04:45.434Z,10.10
2023-03-07T14:07:22.326Z,8.63
2023-03-07T14:09:55.639Z,8.57
2023-03-07T14:12:43.765Z,8.60
2023-03-07T14:15:30.018Z,8.82
2023-03-07T14:18:27.587Z,8.93
2023-03-07T14:21:16.200Z,8.40
2023-03-07T14:24:04.724Z,7.88
2023-03-07T14:26:45.058Z,8.30
2023-03-07T14:29:19.815Z,7.88
2023-03-07T14:31:48.122Z,8.88
2023-03-07T14:34:38.269Z,8.95
2023-03-07T14:37:12.262Z,9.30
2023-03-07T14:39:44.966Z,8.40
2023-03-07T14:42:17.880Z,9.18
2023-03-07T14:45:18.924Z,9.10
2023-03-07T14:48:11.980Z,9.43
2023-03-07T14:50:43.446Z,8.52
2023-03-07T14:53:26.679Z,7.78
2023-03-07T14:55:59.026Z,8.43
2023-03-07T14:58:32.155Z,8.38
2023-03-07T15:01:18.032Z,8.25
2023-03-07T15:03:51.198Z,8.10
2023-03-07T15:06:27.016Z,8.53
2023-03-07T15:08:58.227Z,7.97
2023-03-07T15:11:42.375Z,8.75
2023-03-07T15:14:21.636Z,8.73
2023-03-07T15:16:48.649Z,8.43
2023-03-07T15:19:30.111Z,9.18
2023-03-07T15:22:02.330Z,9.52
2023-03-07T15:24:35.664Z,8.63
2023-03-07T15:27:06.118Z,7.53
2023-03-07T15:29:34.119Z,8.55
2023-03-07T15:32:25.501Z,8.43
2023-03-07T15:35:01.202Z,9.25
2023-03-07T15:37:30.729Z,8.88
2023-03-07T15:40:20.870Z,9.10
2023-03-07T15:42:54.209Z,8.77
2023-03-07T15:45:36.443Z,9.38
2023-03-07T15:48:24.930Z,9.43
2023-03-07T15:50:54.354Z,9.95
2023-03-07T15:53:30.044Z,8.52
2023-03-07T15:56:16.622Z,8.15
2023-03-07T15:58:46.168Z,8.10
2023-03-07T16:01:22.845Z,9.63
2023-03-07T16:03:57.382Z,10.00
2023-03-07T16:06:44.305Z,8.88
2023-03-07T16:09:17.975Z,9.48
2023-03-07T16:11:47.694Z,9.23
2023-03-07T16:14:22.211Z,7.95
2023-03-07T16:16:53.255Z,7.97
2023-03-07T16:19:20.747Z,9.52
2023-03-07T16:21:48.299Z,8.88
2023-03-07T16:24:15.387Z,8.73
2023-03-07T16:26:44.165Z,8.65
2023-03-07T16:29:16.892Z,8.13
2023-03-07T16:31:44.532Z,8.23
2023-03-07T16:34:20.418Z,8.98
2023-03-07T16:36:47.918Z,9.93
2023-03-07T16:39:15.552Z,9.13
2023-03-07T16:41:48.975Z,8.40
2023-03-07T16:44:21.102Z,6.60
2023-03-07T16:47:12.738Z,22.70
2023-03-07T16:49:40.233Z,13.95
2023-03-07T16:52:11.282Z,12.05
2023-03-07T16:54:40.764Z,8.30
2023-03-07T16:57:14.466Z,8.50
2023-03-07T16:59:45.268Z,8.45
2023-03-07T17:02:20.641Z,8.35
2023-03-07T17:04:50.147Z,7.66
2023-03-07T17:07:18.895Z,8.00
2023-03-07T17:09:46.218Z,9.48
2023-03-07T17:12:14.813Z,7.88
2023-03-07T17:14:44.664Z,9.98
2023-03-07T17:17:28.297Z,9.20
2023-03-07T17:19:58.167Z,9.70
2023-03-07T17:22:28.228Z,10.27
2023-03-07T17:24:58.109Z,8.82
2023-03-07T17:27:28.549Z,8.77
2023-03-07T17:29:55.741Z,9.40
2023-03-07T17:32:23.315Z,9.73
2023-03-07T17:34:50.532Z,9.02
2023-03-07T17:37:20.368Z,8.80
2023-03-07T17:39:47.535Z,8.88
2023-03-07T17:42:14.958Z,9.10
2023-03-07T17:44:42.083Z,8.23
2023-03-07T17:47:09.544Z,7.90
2023-03-07T17:49:40.472Z,9.13
2023-03-07T17:52:08.019Z,10.60
2023-03-07T17:54:35.301Z,9.48
2023-03-07T17:57:05.058Z,9.98
2023-03-07T17:59:32.694Z,8.57
2023-03-07T18:02:00.263Z,9.18
2023-03-07T18:04:29.901Z,10.48
2023-03-07T18:07:02.095Z,8.63
2023-03-07T18:09:29.236Z,8.55
2023-03-07T18:11:56.785Z,10.32
2023-03-07T18:14:24.256Z,9.60
2023-03-07T18:16:52.061Z,8.63
2023-03-07T18:19:26.316Z,9.63
2023-03-07T18:21:56.863Z,8.25
2023-03-07T18:24:26.752Z,8.32
2023-03-07T18:26:57.928Z,9.00
2023-03-07T18:29:26.614Z,8.50
2023-03-07T18:31:54.460Z,8.30
2023-03-07T18:34:24.186Z,8.90
2023-03-07T18:36:52.068Z,8.65
2023-03-07T18:39:20.411Z,8.38
2023-03-07T18:41:49.431Z,8.23
2023-03-07T18:44:19.032Z,8.27
2023-03-07T18:46:46.500Z,8.90
2023-03-07T18:49:13.569Z,8.77
2023-03-07T18:51:48.503Z,8.88
2023-03-07T18:54:15.832Z,7.68
2023-03-07T18:56:50.915Z,8.52
2023-03-07T18:59:18.282Z,8.20
2023-03-07T19:01:46.144Z,9.43
2023-03-07T19:04:13.451Z,7.45
2023-03-07T19:06:43.041Z,8.40
2023-03-07T19:09:15.813Z,8.25
2023-03-07T19:11:43.768Z,8.68
2023-03-07T19:14:13.570Z,8.10
2023-03-07T19:16:41.292Z,7.90
2023-03-07T19:19:08.390Z,8.82
2023-03-07T19:21:38.310Z,8.20
2023-03-07T19:24:05.656Z,8.65
2023-03-07T19:26:35.259Z,8.50
2023-03-07T19:29:02.322Z,8.13
2023-03-07T19:31:33.376Z,9.13
2023-03-07T19:34:03.640Z,7.63
2023-03-07T19:36:31.263Z,9.15
2023-03-07T19:38:58.545Z,11.50
2023-03-07T19:41:28.216Z,8.30
2023-03-07T19:43:56.800Z,8.48
2023-03-07T19:46:24.289Z,7.60
2023-03-07T19:48:51.427Z,8.00
2023-03-07T19:51:24.424Z,8.88
2023-03-07T19:53:52.305Z,8.65
2023-03-07T19:56:25.326Z,9.55
2023-03-07T19:58:59.254Z,9.75
2023-03-07T20:01:29.604Z,10.50
2023-03-07T20:03:57.567Z,8.18
2023-03-07T20:06:27.460Z,9.32
2023-03-07T20:08:58.055Z,10.05
2023-03-07T20:11:31.202Z,9.32
2023-03-07T20:14:01.154Z,9.75
2023-03-07T20:16:31.663Z,8.80
2023-03-07T20:19:02.161Z,8.77
2023-03-07T20:21:32.958Z,9.80
2023-03-07T20:24:00.564Z,9.80
2023-03-07T20:26:31.583Z,9.65
2023-03-07T20:29:00.166Z,9.50
2023-03-07T20:31:28.108Z,9.48
2023-03-07T20:33:59.461Z,9.40
2023-03-07T20:36:34.448Z,9.85
2023-03-07T20:39:05.825Z,8.63
2023-03-07T20:41:33.592Z,9.90
2023-03-07T20:44:06.101Z,9.23
2023-03-07T20:46:37.323Z,9.30
2023-03-07T20:49:04.830Z,9.65
2023-03-07T20:51:36.180Z,8.43
2023-03-07T20:54:08.246Z,8.55
2023-03-07T20:56:39.749Z,8.77
2023-03-07T20:59:11.518Z,8.27
2023-03-07T21:01:39.726Z,8.48
2023-03-07T21:04:12.083Z,8.48
2023-03-07T21:06:46.821Z,9.18
2023-03-07T21:09:15.886Z,8.48
2023-03-07T21:11:45.263Z,9.13
2023-03-07T21:14:13.535Z,9.27
2023-03-07T21:16:43.492Z,8.98
2023-03-07T21:19:11.613Z,9.63
2023-03-07T21:21:42.288Z,9.23
2023-03-07T21:24:14.473Z,9.55
2023-03-07T21:26:41.969Z,9.15
2023-03-07T21:29:13.572Z,9.77
2023-03-07T21:31:41.067Z,10.70
2023-03-07T21:34:16.700Z,9.02
2023-03-07T21:36:46.340Z,9.00
2023-03-07T21:39:13.535Z,9.20
2023-03-07T21:41:45.635Z,9.70
2023-03-07T21:44:15.051Z,9.50
2023-03-07T21:46:42.516Z,10.27
2023-03-07T21:49:09.555Z,8.65
2023-03-07T21:51:36.938Z,9.43
2023-03-07T21:54:04.208Z,11.02
2023-03-07T21:56:31.619Z,9.82
2023-03-07T21:58:58.695Z,11.45
2023-03-07T22:01:29.152Z,8.88
2023-03-07T22:03:58.534Z,8.55
2023-03-07T22:06:28.063Z,9.02
2023-03-07T22:08:59.427Z,9.13
2023-03-07T22:11:26.872Z,8.80
2023-03-07T22:13:56.302Z,8.63
2023-03-07T22:16:23.773Z,9.10
2023-03-07T22:18:59.657Z,9.13
2023-03-07T22:21:27.150Z,9.50
2023-03-07T22:24:02.030Z,9.50
2023-03-07T22:26:32.638Z,9.40
2023-03-07T22:29:01.864Z,9.20
2023-03-07T22:31:29.384Z,9.20
2023-03-07T22:33:58.558Z,9.32
2023-03-07T22:36:26.000Z,9.88
2023-03-07T22:38:55.211Z,9.40
2023-03-07T22:41:23.863Z,10.02
2023-03-07T22:43:50.936Z,9.35
2023-03-07T22:46:18.638Z,13.80
2023-03-07T22:48:45.776Z,10.30
2023-03-07T22:51:16.968Z,9.88
2023-03-07T22:53:44.556Z,10.45
2023-03-07T22:56:18.641Z,9.95
2023-03-07T22:58:45.996Z,10.73
2023-03-07T23:01:17.481Z,9.98
2023-03-07T23:03:44.577Z,10.70
2023-03-07T23:06:14.772Z,10.73
2023-03-07T23:08:46.726Z,11.18
2023-03-07T23:11:14.804Z,10.85
2023-03-07T23:13:42.191Z,10.93
2023-03-07T23:16:14.971Z,10.60
2023-03-07T23:18:42.692Z,11.50
2023-03-07T23:21:12.602Z,11.77
2023-03-07T23:23:39.691Z,10.85
2023-03-07T23:26:07.706Z,11.38
2023-03-07T23:28:35.053Z,10.63
2023-03-07T23:31:02.525Z,10.68
2023-03-07T23:33:29.658Z,10.80
2023-03-07T23:36:01.946Z,10.10
2023-03-07T23:38:29.061Z,10.80
2023-03-07T23:40:59.245Z,10.32
2023-03-07T23:43:26.490Z,9.90
2023-03-07T23:45:53.882Z,10.25
2023-03-07T23:48:20.981Z,11.05
2023-03-07T23:50:49.106Z,10.25
2023-03-07T23:53:16.282Z,10.95
2023-03-07T23:55:43.891Z,11.15
2023-03-07T23:58:10.983Z,10.48
